Time;durP1;ratioP1;P1;durP2;ratioP2;P2;SDS_P1;SDS_P2;PMS_P1;PMS_P2;Temp;Humidity;BMP_temperature;BMP_pressure;BME280_temperature;BME280_humidity;BME280_pressure;Samples;Min_cycle;Max_cycle;Signal;HPM_P1;HPM_P2
2023/01/11 00:00:30;;;;;;;1.40;1.30;;;10.60;80.20;;;;;;5056913;28;20074;-87
2023/01/11 00:02:59;;;;;;;1.50;1.40;;;10.70;80.20;;;;;;5062808;28;20032;-87
2023/01/11 00:05:25;;;;;;;2.53;1.88;;;10.70;80.20;;;;;;5078211;28;20086;-86
2023/01/11 00:07:51;;;;;;;1.92;1.60;;;10.70;80.20;;;;;;5063104;28;20626;-87
2023/01/11 00:10:18;;;;;;;1.65;1.42;;;10.70;80.20;;;;;;5064396;28;20073;-84
2023/01/11 00:12:44;;;;;;;1.40;1.30;;;10.70;80.20;;;;;;5064690;28;20028;-87
2023/01/11 00:15:10;;;;;;;1.60;1.50;;;10.70;80.20;;;;;;5076689;28;20446;-87
2023/01/11 00:17:36;;;;;;;1.60;1.50;;;10.70;80.20;;;;;;5077609;28;20057;-87
2023/01/11 00:20:02;;;;;;;1.60;1.50;;;10.70;80.20;;;;;;5078776;28;20025;-86
2023/01/11 00:22:28;;;;;;;1.60;1.50;;;10.70;80.20;;;;;;5080549;28;20123;-87
2023/01/11 00:24:54;;;;;;;1.60;1.50;;;10.70;80.20;;;;;;5084173;28;20106;-86
2023/01/11 00:27:20;;;;;;;1.42;1.30;;;10.80;80.20;;;;;;5070636;28;20472;-86
2023/01/11 00:29:45;;;;;;;1.50;1.40;;;10.80;80.20;;;;;;5064387;28;20035;-88
2023/01/11 00:32:11;;;;;;;1.50;1.40;;;10.80;80.20;;;;;;5076116;28;20092;-87
2023/01/11 00:34:37;;;;;;;1.55;1.45;;;10.80;80.20;;;;;;5087580;28;20111;-87
2023/01/11 00:37:03;;;;;;;1.63;1.30;;;10.80;80.10;;;;;;5063533;28;20032;-86
2023/01/11 00:39:29;;;;;;;1.67;1.58;;;10.90;80.20;;;;;;5042908;28;20035;-87
2023/01/11 00:50:10;;;;;;;1.45;1.35;;;10.90;80.10;;;;;;5091507;28;20035;-86
2023/01/11 00:52:35;;;;;;;1.50;1.40;;;10.90;80.70;;;;;;5071779;28;20062;-87
2023/01/11 00:55:01;;;;;;;2.00;1.40;;;10.90;80.20;;;;;;5067534;28;20035;-85
2023/01/11 00:57:27;;;;;;;1.58;1.48;;;11.00;80.20;;;;;;5077213;28;20047;-87
2023/01/11 00:59:53;;;;;;;1.55;1.42;;;11.00;80.20;;;;;;5079044;28;20465;-87
2023/01/11 01:02:18;;;;;;;1.67;1.58;;;11.00;80.20;;;;;;5058064;28;20021;-86
2023/01/11 01:04:44;;;;;;;1.50;1.40;;;11.00;80.20;;;;;;5043275;28;20028;-87
2023/01/11 01:07:10;;;;;;;1.55;1.45;;;11.00;80.20;;;;;;5042118;28;20086;-88
2023/01/11 01:09:36;;;;;;;1.67;1.58;;;11.00;80.20;;;;;;5062316;28;20056;-86
2023/01/11 01:12:02;;;;;;;1.75;1.40;;;11.10;80.20;;;;;;5045910;28;20055;-87
2023/01/11 01:14:31;;;;;;;1.58;1.48;;;11.00;80.20;;;;;;5085614;28;20024;-86
2023/01/11 01:17:05;;;;;;;1.60;1.50;;;11.10;80.30;;;;;;5059826;28;20086;-87
2023/01/11 01:19:34;;;;;;;1.67;1.40;;;11.10;80.30;;;;;;5073656;28;20024;-87
2023/01/11 01:21:59;;;;;;;1.52;1.42;;;11.10;80.20;;;;;;5058680;28;20471;-86
2023/01/11 01:24:27;;;;;;;1.50;1.40;;;11.10;80.20;;;;;;5095689;28;20492;-87
2023/01/11 01:26:54;;;;;;;1.27;1.20;;;11.10;80.30;;;;;;5073706;28;20043;-86
2023/01/11 01:29:20;;;;;;;1.50;1.40;;;11.20;80.30;;;;;;5078389;28;20034;-87
2023/01/11 01:31:46;;;;;;;1.42;1.33;;;11.20;80.20;;;;;;5073101;28;20495;-87
2023/01/11 01:34:12;;;;;;;2.95;1.77;;;11.20;80.20;;;;;;5073636;28;20024;-87
2023/01/11 01:36:38;;;;;;;1.50;1.35;;;11.20;80.30;;;;;;5059988;28;20024;-87
2023/01/11 01:39:05;;;;;;;1.42;1.33;;;11.20;80.30;;;;;;5080887;28;20032;-87
2023/01/11 01:41:31;;;;;;;1.60;1.50;;;11.20;80.20;;;;;;5083445;28;20078;-87
2023/01/11 01:43:59;;;;;;;3.53;1.50;;;11.30;80.30;;;;;;5066621;28;20766;-86
2023/01/11 01:46:32;;;;;;;1.50;1.40;;;11.30;80.30;;;;;;5082411;28;20047;-86
2023/01/11 01:49:05;;;;;;;1.40;1.30;;;11.30;80.30;;;;;;5074122;28;20456;-87
2023/01/11 01:51:35;;;;;;;1.50;1.40;;;11.30;80.30;;;;;;5075252;28;20504;-87
2023/01/11 01:54:07;;;;;;;1.60;1.50;;;11.30;80.30;;;;;;5088507;28;20035;-87
2023/01/11 01:56:40;;;;;;;1.45;1.33;;;11.30;80.20;;;;;;5088283;28;20141;-87
2023/01/11 01:59:11;;;;;;;1.30;1.20;;;11.30;80.20;;;;;;5068937;28;20059;-88
2023/01/11 02:01:47;;;;;;;1.30;1.23;;;11.30;80.20;;;;;;5082091;28;20035;-88
2023/01/11 02:04:34;;;;;;;1.50;1.40;;;11.40;80.20;;;;;;5088328;28;20067;-88
2023/01/11 02:07:05;;;;;;;1.50;1.40;;;11.40;80.30;;;;;;5097627;28;20066;-88
2023/01/11 02:09:49;;;;;;;1.45;1.35;;;11.40;80.20;;;;;;5074099;28;20536;-88
2023/01/11 02:12:15;;;;;;;1.42;1.33;;;11.40;80.20;;;;;;5085405;28;20036;-87
2023/01/11 02:14:43;;;;;;;1.40;1.30;;;11.40;80.20;;;;;;5060296;28;20032;-88
2023/01/11 02:17:09;;;;;;;1.77;1.50;;;11.40;80.30;;;;;;5058223;28;20035;-88
2023/01/11 02:20:04;;;;;;;1.45;1.35;;;11.50;80.30;;;;;;5092485;28;20028;-88
2023/01/11 02:23:07;;;;;;;1.30;1.20;;;11.50;80.30;;;;;;5093403;28;20108;-88
2023/01/11 02:26:05;;;;;;;1.30;1.20;;;11.50;80.30;;;;;;5053660;28;20028;-89
2023/01/11 02:28:58;;;;;;;1.30;1.20;;;11.50;80.20;;;;;;5092934;28;20468;-89
2023/01/11 02:31:42;;;;;;;1.20;1.10;;;11.50;80.20;;;;;;5062454;28;20035;-88
2023/01/11 02:34:32;;;;;;;1.50;1.40;;;11.50;80.30;;;;;;5097066;28;20119;-88
2023/01/11 02:37:10;;;;;;;1.30;1.20;;;11.50;80.20;;;;;;5091446;28;20035;-88
2023/01/11 02:40:14;;;;;;;1.30;1.20;;;11.50;80.20;;;;;;5082525;28;20115;-87
2023/01/11 02:45:36;;;;;;;1.30;1.20;;;11.60;80.20;;;;;;5082673;28;20065;-88
2023/01/11 02:48:26;;;;;;;1.40;1.30;;;11.60;80.30;;;;;;5073969;28;20032;-87
2023/01/11 02:51:18;;;;;;;1.10;1.10;;;11.60;80.30;;;;;;5094501;28;20031;-88
2023/01/11 02:54:00;;;;;;;1.10;1.10;;;11.60;80.20;;;;;;5082372;28;20115;-88
2023/01/11 02:56:29;;;;;;;1.20;1.10;;;11.60;80.20;;;;;;5071717;28;20024;-87
2023/01/11 02:58:57;;;;;;;1.35;1.20;;;11.60;80.20;;;;;;5095964;28;20032;-86
2023/01/11 03:01:24;;;;;;;1.20;1.20;;;11.70;80.30;;;;;;5064942;28;20051;-87
2023/01/11 03:03:51;;;;;;;1.00;1.00;;;11.70;80.20;;;;;;5091249;28;20035;-88
2023/01/11 03:06:26;;;;;;;1.38;1.25;;;11.70;80.20;;;;;;5069268;28;20185;-88
2023/01/11 03:09:04;;;;;;;;;;;11.70;80.30;;;;;;5063122;28;20434;-88
2023/01/11 03:15:00;;;;;;;1.17;1.15;;;11.70;80.10;;;;;;5079485;28;20040;-88
2023/01/11 03:17:38;;;;;;;1.77;1.20;;;11.70;80.10;;;;;;5074071;28;20062;-87
2023/01/11 03:20:30;;;;;;;1.00;1.00;;;11.80;80.20;;;;;;5092238;28;20122;-88
2023/01/11 03:23:12;;;;;;;1.10;1.10;;;11.80;80.30;;;;;;5073563;28;20044;-87
2023/01/11 03:25:38;;;;;;;1.17;1.17;;;11.80;80.20;;;;;;5078708;28;20491;-89
2023/01/11 03:28:13;;;;;;;1.30;1.20;;;11.80;80.20;;;;;;5096913;28;20027;-86
2023/01/11 03:31:09;;;;;;;1.13;1.10;;;11.80;80.90;;;;;;5095693;28;20078;-87
2023/01/11 03:34:07;;;;;;;1.40;1.30;;;11.80;80.20;;;;;;5068793;28;20028;-88
2023/01/11 03:36:45;;;;;;;1.13;1.10;;;11.90;80.30;;;;;;5059064;28;20048;-86
2023/01/11 03:39:21;;;;;;;1.25;1.15;;;11.90;80.20;;;;;;5078305;28;20031;-89
2023/01/11 03:41:51;;;;;;;1.13;1.02;;;11.90;80.20;;;;;;5082712;28;20024;-87
2023/01/11 03:44:19;;;;;;;1.00;1.00;;;11.90;80.20;;;;;;5093621;28;20028;-87
2023/01/11 03:46:51;;;;;;;1.20;1.20;;;11.90;80.20;;;;;;5082177;28;20043;-89
2023/01/11 03:49:26;;;;;;;1.25;1.20;;;11.90;80.20;;;;;;5090501;28;20543;-88
2023/01/11 03:51:55;;;;;;;1.35;1.30;;;11.90;80.20;;;;;;5084242;28;20529;-89
2023/01/11 03:54:23;;;;;;;1.20;1.10;;;12.00;80.20;;;;;;5059158;28;20027;-88
2023/01/11 03:57:10;;;;;;;1.10;1.10;;;12.00;80.20;;;;;;5081074;28;20035;-88
2023/01/11 03:59:38;;;;;;;1.23;1.20;;;12.00;80.20;;;;;;5071862;28;20024;-89
2023/01/11 04:02:09;;;;;;;1.30;1.20;;;12.00;80.10;;;;;;5076909;28;20024;-88
2023/01/11 04:04:34;;;;;;;1.40;1.30;;;12.00;80.10;;;;;;5063453;28;20044;-86
2023/01/11 04:07:00;;;;;;;1.20;1.20;;;12.00;80.10;;;;;;5073647;28;20144;-86
2023/01/11 04:09:26;;;;;;;1.20;1.10;;;12.10;80.20;;;;;;5079368;28;20086;-87
2023/01/11 04:11:51;;;;;;;1.27;1.10;;;12.10;80.20;;;;;;5084750;28;20082;-87
2023/01/11 04:14:17;;;;;;;1.13;1.08;;;12.10;80.20;;;;;;5063804;28;20078;-87
2023/01/11 04:16:43;;;;;;;1.02;1.02;;;12.10;80.10;;;;;;5059352;28;20028;-87
2023/01/11 04:19:09;;;;;;;1.00;1.00;;;12.10;80.10;;;;;;5094908;28;20028;-87
2023/01/11 04:21:34;;;;;;;1.10;1.10;;;12.20;80.80;;;;;;5057114;28;20059;-88
2023/01/11 04:24:00;;;;;;;1.00;1.00;;;12.10;80.10;;;;;;5092773;28;20039;-87
2023/01/11 04:26:26;;;;;;;1.00;1.00;;;12.20;80.10;;;;;;5044891;28;20025;-87
2023/01/11 04:28:51;;;;;;;1.00;1.00;;;12.20;80.10;;;;;;5056626;28;20481;-88
2023/01/11 04:31:17;;;;;;;1.20;1.10;;;12.20;80.10;;;;;;5080552;28;20036;-87
2023/01/11 04:33:43;;;;;;;1.13;1.10;;;12.20;80.10;;;;;;5076981;28;20051;-88
2023/01/11 04:36:10;;;;;;;1.17;1.00;;;12.20;80.10;;;;;;5078815;28;20029;-87
2023/01/11 04:38:36;;;;;;;1.10;1.10;;;12.20;80.00;;;;;;5082318;28;20062;-87
2023/01/11 04:43:46;;;;;;;0.90;0.90;;;12.30;80.10;;;;;;5079919;28;20035;-87
2023/01/11 04:46:12;;;;;;;1.10;1.10;;;12.30;80.10;;;;;;5065914;28;20456;-85
2023/01/11 04:48:39;;;;;;;1.00;1.00;;;12.30;80.10;;;;;;5066433;28;20129;-87
2023/01/11 04:51:06;;;;;;;1.10;1.10;;;12.30;80.10;;;;;;5078408;28;20028;-88
2023/01/11 04:53:32;;;;;;;1.13;1.13;;;12.30;80.10;;;;;;5070003;28;20047;-88
2023/01/11 04:56:02;;;;;;;1.10;1.10;;;12.30;80.00;;;;;;5076132;28;20136;-87
2023/01/11 04:58:33;;;;;;;1.13;1.13;;;12.40;80.10;;;;;;5076094;28;20032;-88
2023/01/11 05:00:59;;;;;;;1.00;1.00;;;12.40;80.10;;;;;;5083965;28;20028;-88
2023/01/11 05:03:25;;;;;;;1.00;1.00;;;12.40;80.10;;;;;;5064418;28;20028;-87
2023/01/11 05:05:58;;;;;;;1.10;1.10;;;12.40;80.10;;;;;;5066686;28;20141;-88
2023/01/11 05:08:26;;;;;;;1.02;1.02;;;12.40;80.10;;;;;;5068339;28;20568;-88
2023/01/11 05:10:52;;;;;;;1.15;1.15;;;12.40;80.00;;;;;;5065807;28;20063;-88
2023/01/11 05:13:18;;;;;;;1.10;1.10;;;12.40;80.00;;;;;;5101997;28;20118;-87
2023/01/11 05:15:44;;;;;;;1.10;1.10;;;12.40;80.00;;;;;;5062778;28;20107;-88
2023/01/11 05:18:10;;;;;;;1.10;1.10;;;12.50;80.00;;;;;;5085940;28;20040;-88
2023/01/11 05:20:35;;;;;;;1.00;1.00;;;12.50;80.10;;;;;;5056370;28;20091;-89
2023/01/11 05:23:01;;;;;;;1.25;1.20;;;12.50;80.00;;;;;;5077975;28;20099;-88
2023/01/11 05:25:27;;;;;;;1.35;1.25;;;12.50;80.00;;;;;;5101315;28;20743;-88
2023/01/11 05:27:53;;;;;;;1.33;1.23;;;12.50;80.00;;;;;;5072222;28;20031;-88
2023/01/11 05:30:18;;;;;;;1.15;1.13;;;12.50;80.00;;;;;;5082941;28;20074;-87
2023/01/11 05:32:44;;;;;;;1.30;1.20;;;12.60;80.70;;;;;;5086448;28;20032;-88
2023/01/11 05:35:10;;;;;;;1.67;1.20;;;12.50;80.00;;;;;;5057199;28;20043;-88
2023/01/11 05:37:37;;;;;;;1.40;1.40;;;12.60;80.00;;;;;;5068232;28;20029;-87
2023/01/11 05:40:07;;;;;;;1.40;1.30;;;12.60;80.10;;;;;;5079714;28;20024;-86
2023/01/11 05:42:32;;;;;;;1.35;1.25;;;12.60;80.00;;;;;;5064261;28;20051;-86
2023/01/11 05:47:42;;;;;;;2.10;1.50;;;12.60;79.90;;;;;;5073864;28;20032;-87
2023/01/11 05:50:09;;;;;;;1.35;1.25;;;12.60;79.90;;;;;;5075030;28;20028;-88
2023/01/11 05:52:34;;;;;;;1.45;1.35;;;12.70;80.00;;;;;;5076780;28;20176;-88
2023/01/11 05:55:00;;;;;;;1.50;1.40;;;12.70;79.90;;;;;;5077391;28;20024;-86
2023/01/11 05:57:26;;;;;;;1.50;1.40;;;12.70;79.90;;;;;;5073642;28;20035;-86
2023/01/11 05:59:52;;;;;;;1.50;1.40;;;12.70;79.90;;;;;;5074203;28;20062;-87
2023/01/11 06:02:18;;;;;;;1.40;1.30;;;12.70;79.90;;;;;;5073822;28;20028;-87
2023/01/11 06:04:43;;;;;;;1.40;1.30;;;12.70;79.90;;;;;;5062153;28;20487;-87
2023/01/11 06:07:09;;;;;;;1.73;1.60;;;12.70;79.80;;;;;;5058248;28;20024;-87
2023/01/11 06:09:35;;;;;;;1.70;1.60;;;12.80;79.90;;;;;;5064279;28;20059;-86
2023/01/11 06:12:01;;;;;;;1.58;1.48;;;12.80;79.80;;;;;;5056320;28;20101;-86
2023/01/11 06:14:26;;;;;;;1.88;1.63;;;12.80;79.80;;;;;;5075974;28;20111;-87
2023/01/11 06:16:52;;;;;;;1.70;1.60;;;12.80;79.80;;;;;;5059881;28;20052;-89
2023/01/11 06:19:18;;;;;;;2.40;1.65;;;12.80;79.80;;;;;;5058292;28;20399;-86
2023/01/11 06:21:44;;;;;;;2.53;1.65;;;12.80;79.80;;;;;;5057537;28;20039;-87
2023/01/11 06:24:09;;;;;;;2.35;1.63;;;12.80;79.80;;;;;;5077693;28;20115;-86
2023/01/11 06:26:35;;;;;;;1.67;1.58;;;12.80;79.70;;;;;;5063567;28;20036;-84
2023/01/11 06:29:01;;;;;;;1.75;1.65;;;12.80;79.80;;;;;;5064141;28;20131;-85
2023/01/11 06:31:27;;;;;;;1.80;1.58;;;12.80;79.70;;;;;;5058319;28;20024;-86
2023/01/11 06:33:52;;;;;;;2.17;1.75;;;12.90;79.80;;;;;;5060117;28;20417;-86
2023/01/11 06:36:18;;;;;;;2.38;1.70;;;12.80;79.70;;;;;;5060181;28;20119;-85
2023/01/11 06:38:44;;;;;;;1.92;1.63;;;12.90;79.80;;;;;;5084747;28;20020;-87
2023/01/11 06:41:13;;;;;;;3.13;1.67;;;12.90;79.80;;;;;;5074719;28;20066;-87
2023/01/11 06:43:40;;;;;;;1.65;1.50;;;12.90;79.80;;;;;;5073372;28;20375;-86
2023/01/11 06:46:10;;;;;;;1.95;1.73;;;12.90;79.80;;;;;;5080589;28;20032;-86
2023/01/11 06:48:36;;;;;;;2.60;1.85;;;12.90;79.80;;;;;;5065343;28;20496;-88
2023/01/11 06:51:02;;;;;;;2.70;1.60;;;12.90;79.80;;;;;;5063127;28;20032;-88
2023/01/11 06:53:28;;;;;;;1.77;1.48;;;12.90;79.80;;;;;;5077300;28;20646;-87
2023/01/11 06:55:55;;;;;;;2.83;1.52;;;12.90;79.80;;;;;;5043694;28;20484;-88
2023/01/11 06:58:24;;;;;;;2.58;1.45;;;12.90;79.80;;;;;;5065301;28;20031;-88
2023/01/11 07:00:51;;;;;;;2.95;1.80;;;12.90;79.80;;;;;;5077251;28;20077;-87
2023/01/11 07:03:22;;;;;;;2.40;1.60;;;12.90;79.80;;;;;;5080894;28;20221;-88
2023/01/11 07:05:51;;;;;;;4.13;1.75;;;12.90;79.80;;;;;;5060880;28;20032;-89
2023/01/11 07:08:17;;;;;;;1.83;1.42;;;12.90;79.80;;;;;;5061051;28;20075;-88
2023/01/11 07:10:44;;;;;;;2.40;1.50;;;12.90;79.80;;;;;;5062257;28;20060;-88
2023/01/11 07:13:11;;;;;;;2.45;1.70;;;12.90;79.80;;;;;;5095933;28;20063;-87
2023/01/11 07:15:37;;;;;;;2.17;1.40;;;12.90;79.80;;;;;;5078416;28;20036;-88
2023/01/11 07:18:03;;;;;;;2.75;1.42;;;12.90;79.80;;;;;;5065859;28;20028;-88
2023/01/11 07:20:29;;;;;;;3.55;1.73;;;12.90;79.80;;;;;;5078165;28;20464;-88
2023/01/11 07:22:59;;;;;;;3.97;1.80;;;12.90;79.70;;;;;;5066283;28;20254;-86
2023/01/11 07:25:28;;;;;;;4.15;1.88;;;12.90;79.80;;;;;;5084889;28;20024;-87
2023/01/11 07:28:02;;;;;;;2.65;1.52;;;12.90;79.70;;;;;;5081388;28;20044;-88
2023/01/11 07:30:30;;;;;;;2.17;1.88;;;12.90;79.80;;;;;;5062086;28;20036;-89
2023/01/11 07:32:57;;;;;;;3.63;1.60;;;12.90;79.80;;;;;;5063861;28;20024;-82
2023/01/11 07:35:23;;;;;;;3.70;1.98;;;12.90;79.80;;;;;;5081698;28;20051;-89
2023/01/11 07:37:48;;;;;;;3.28;1.45;;;13.00;79.80;;;;;;5060182;28;20040;-88
2023/01/11 07:40:17;;;;;;;2.88;1.70;;;13.00;79.80;;;;;;5078351;28;20024;-86
2023/01/11 07:45:41;;;;;;;2.20;1.65;;;12.90;79.70;;;;;;5078878;28;20042;-89
2023/01/11 07:48:09;;;;;;;2.00;1.40;;;12.90;79.70;;;;;;5080012;28;20036;-90
2023/01/11 07:50:39;;;;;;;4.80;1.80;;;13.00;79.70;;;;;;5068220;28;20033;-90
2023/01/11 07:53:07;;;;;;;2.00;1.40;;;13.00;79.80;;;;;;5081887;28;20472;-91
2023/01/11 07:55:34;;;;;;;4.60;1.60;;;12.90;79.70;;;;;;5072105;28;20024;-92
2023/01/11 07:57:59;;;;;;;3.05;1.73;;;12.90;79.70;;;;;;5066990;28;20083;-91
2023/01/11 08:00:25;;;;;;;3.15;1.60;;;12.90;79.70;;;;;;5080355;28;20059;-92
2023/01/11 08:02:51;;;;;;;2.08;1.40;;;12.90;79.70;;;;;;5041626;28;20028;-90
2023/01/11 08:05:18;;;;;;;4.80;1.70;;;12.90;79.70;;;;;;5058860;28;20056;-90
2023/01/11 08:07:45;;;;;;;2.55;1.38;;;12.90;79.80;;;;;;5066617;28;20024;-91
2023/01/11 08:10:10;;;;;;;2.45;1.50;;;12.90;79.70;;;;;;5065990;28;20497;-90
2023/01/11 08:15:35;;;;;;;2.22;1.30;;;12.90;79.80;;;;;;5082418;28;20055;-92
2023/01/11 08:18:03;;;;;;;2.72;1.48;;;12.90;79.80;;;;;;5065506;28;20032;-90
2023/01/11 08:20:29;;;;;;;2.30;1.42;;;12.90;79.90;;;;;;5094308;28;20024;-91
2023/01/11 08:22:55;;;;;;;2.45;1.30;;;12.90;79.90;;;;;;5060519;28;20032;-90
2023/01/11 08:25:21;;;;;;;2.10;1.48;;;12.90;79.90;;;;;;5078056;28;20035;-89
2023/01/11 08:27:47;;;;;;;2.72;1.48;;;12.90;80.00;;;;;;5095537;28;20434;-90
2023/01/11 08:30:13;;;;;;;1.40;1.23;;;12.80;79.90;;;;;;5081439;28;20063;-89
2023/01/11 08:32:39;;;;;;;3.55;1.80;;;12.80;80.00;;;;;;5092760;28;20024;-92
2023/01/11 08:35:05;;;;;;;5.03;1.85;;;12.80;79.90;;;;;;5076527;28;20039;-91
2023/01/11 08:37:31;;;;;;;3.00;1.35;;;12.80;80.00;;;;;;5086277;28;20081;-90
2023/01/11 08:39:57;;;;;;;2.70;1.55;;;12.90;80.00;;;;;;5061642;28;20016;-89
2023/01/11 08:42:23;;;;;;;3.47;1.63;;;12.80;80.00;;;;;;5059540;28;20056;-91
2023/01/11 08:44:49;;;;;;;4.10;1.42;;;12.80;80.00;;;;;;5087870;28;20031;-92
2023/01/11 08:47:15;;;;;;;4.40;1.60;;;12.80;80.00;;;;;;5078436;28;20507;-91
2023/01/11 08:49:41;;;;;;;2.38;1.30;;;12.80;80.00;;;;;;5078216;28;20032;-91
2023/01/11 08:52:12;;;;;;;2.22;1.10;;;12.80;80.00;;;;;;5076851;28;20024;-89
2023/01/11 08:54:39;;;;;;;3.50;1.50;;;12.80;80.00;;;;;;5076097;28;20024;-90
2023/01/11 08:57:05;;;;;;;2.53;1.50;;;12.80;80.00;;;;;;5076792;28;20035;-90
2023/01/11 08:59:31;;;;;;;2.72;1.30;;;12.80;80.10;;;;;;5077175;28;20477;-90
2023/01/11 09:01:57;;;;;;;2.80;1.38;;;12.70;80.00;;;;;;5039757;28;20054;-90
2023/01/11 09:04:23;;;;;;;2.95;1.30;;;12.70;80.00;;;;;;5058310;28;20024;-91
2023/01/11 09:06:50;;;;;;;1.85;1.42;;;12.70;80.00;;;;;;5060328;28;20068;-92
2023/01/11 09:09:15;;;;;;;2.90;1.40;;;12.70;80.00;;;;;;5076083;28;20039;-91
2023/01/11 09:11:53;;;;;;;3.25;1.55;;;12.70;80.00;;;;;;5079346;28;20024;-93
2023/01/11 09:14:20;;;;;;;2.58;1.30;;;12.70;80.70;;;;;;5061554;28;20032;-91
2023/01/11 09:16:47;;;;;;;1.75;1.42;;;12.70;80.10;;;;;;5076620;28;20024;-92
2023/01/11 09:19:13;;;;;;;3.15;1.65;;;12.70;80.10;;;;;;5060209;28;20054;-92
2023/01/11 09:21:39;;;;;;;3.03;1.73;;;12.70;80.10;;;;;;5068902;28;20024;-91
2023/01/11 09:24:05;;;;;;;2.50;1.40;;;12.70;80.10;;;;;;5066708;28;20081;-92
2023/01/11 09:26:31;;;;;;;2.33;1.40;;;12.60;80.00;;;;;;5063099;28;20027;-92
2023/01/11 09:28:57;;;;;;;3.42;1.50;;;12.60;80.10;;;;;;5070814;28;20074;-92
2023/01/11 09:31:23;;;;;;;2.05;1.52;;;12.70;80.20;;;;;;5070845;28;20361;-91
2023/01/11 09:33:49;;;;;;;3.13;1.60;;;12.60;80.10;;;;;;5074503;28;20092;-87
2023/01/11 09:36:17;;;;;;;4.00;1.67;;;12.60;80.10;;;;;;5066827;28;20038;-85
2023/01/11 09:38:43;;;;;;;2.22;1.30;;;12.60;80.10;;;;;;5074014;28;20028;-88
2023/01/11 09:41:33;;;;;;;2.33;1.30;;;12.60;80.10;;;;;;5075373;28;20028;-89
2023/01/11 09:44:25;;;;;;;2.92;1.40;;;12.60;80.20;;;;;;5055903;28;20048;-91
2023/01/11 09:46:55;;;;;;;2.78;1.65;;;12.60;80.20;;;;;;5068287;28;20097;-91
2023/01/11 09:49:33;;;;;;;3.40;1.48;;;12.60;80.20;;;;;;5079883;28;20032;-92
2023/01/11 09:52:32;;;;;;;3.15;1.55;;;12.60;80.20;;;;;;5078884;28;20020;-92
2023/01/11 09:54:58;;;;;;;1.90;1.27;;;12.60;80.20;;;;;;5078865;28;20134;-91
2023/01/11 09:57:47;;;;;;;1.45;1.20;;;12.50;80.10;;;;;;5074571;28;20020;-91
2023/01/11 10:00:33;;;;;;;1.95;1.40;;;12.60;80.30;;;;;;5087538;28;20050;-92
2023/01/11 10:03:22;;;;;;;2.88;1.30;;;12.50;80.10;;;;;;5084761;28;20040;-91
2023/01/11 10:06:18;;;;;;;3.53;1.70;;;12.50;80.20;;;;;;5072175;28;20031;-92
2023/01/11 10:08:46;;;;;;;;;;;12.50;80.20;;;;;;5072984;28;20040;-92
2023/01/11 10:11:11;;;;;;;3.28;1.35;;;12.40;80.10;;;;;;5076410;28;19912;-91
2023/01/11 10:13:52;;;;;;;3.53;1.60;;;12.50;80.10;;;;;;5096909;28;20057;-91
2023/01/11 10:16:23;;;;;;;3.42;1.65;;;12.40;80.20;;;;;;5091471;28;20024;-92
2023/01/11 10:19:13;;;;;;;2.88;1.50;;;12.40;80.20;;;;;;5075025;28;20604;-91
2023/01/11 10:21:53;;;;;;;3.08;1.40;;;12.40;80.20;;;;;;5093353;28;20028;-92
2023/01/11 10:24:57;;;;;;;2.78;1.30;;;12.40;80.20;;;;;;5080752;28;20085;-92
2023/01/11 10:27:35;;;;;;;3.40;1.55;;;12.40;80.30;;;;;;5042870;28;20032;-91
2023/01/11 10:30:32;;;;;;;3.13;1.20;;;12.40;80.20;;;;;;5077463;28;20032;-92
2023/01/11 10:39:46;;;;;;;2.60;1.23;;;12.40;80.30;;;;;;5102902;28;20087;-91
2023/01/11 10:42:22;;;;;;;1.70;1.33;;;12.40;80.30;;;;;;5063344;28;20119;-91
2023/01/11 10:45:05;;;;;;;2.97;1.40;;;12.30;80.20;;;;;;5079572;28;20069;-93
2023/01/11 10:48:00;;;;;;;2.67;1.48;;;12.30;80.20;;;;;;5094444;28;20575;-92
2023/01/11 10:51:13;;;;;;;3.85;1.60;;;12.30;80.20;;;;;;5082095;28;20036;-92
2023/01/11 10:53:58;;;;;;;3.75;1.50;;;12.30;80.30;;;;;;5086032;28;20089;-92
2023/01/11 10:56:48;;;;;;;3.47;1.60;;;12.30;80.20;;;;;;5074500;28;20035;-91
2023/01/11 10:59:23;;;;;;;2.85;1.27;;;12.30;80.20;;;;;;5098506;28;20052;-91
2023/01/11 11:02:00;;;;;;;4.07;1.90;;;12.30;80.20;;;;;;5078041;28;20032;-87
2023/01/11 11:04:49;;;;;;;2.67;1.40;;;12.30;80.20;;;;;;5096218;28;20031;-91
2023/01/11 11:07:33;;;;;;;2.50;1.33;;;12.30;80.30;;;;;;5077319;28;20019;-92
2023/01/11 11:10:23;;;;;;;2.60;1.38;;;12.30;80.30;;;;;;5065393;28;20480;-91
2023/01/11 11:13:08;;;;;;;2.97;1.30;;;12.30;80.30;;;;;;5079045;28;20032;-93
2023/01/11 11:15:46;;;;;;;2.33;1.42;;;12.30;80.40;;;;;;5074299;28;20046;-92
2023/01/11 11:18:11;;;;;;;2.38;1.38;;;12.30;80.40;;;;;;5096360;28;20050;-90
2023/01/11 11:20:37;;;;;;;4.35;1.50;;;12.30;80.40;;;;;;5079610;28;20028;-88
2023/01/11 11:23:03;;;;;;;2.40;1.48;;;12.30;80.40;;;;;;5084286;28;20126;-92
2023/01/11 11:25:38;;;;;;;2.75;1.48;;;12.30;80.40;;;;;;5063764;28;20024;-91
2023/01/11 11:28:24;;;;;;;3.47;1.40;;;12.30;80.50;;;;;;5104712;28;20080;-92
2023/01/11 11:30:58;;;;;;;1.60;1.15;;;12.30;80.40;;;;;;5072685;28;20423;-92
2023/01/11 11:33:45;;;;;;;2.72;1.30;;;12.40;80.50;;;;;;5080400;28;20020;-90
2023/01/11 11:36:15;;;;;;;3.75;1.40;;;12.30;80.50;;;;;;5088527;28;20039;-91
2023/01/11 11:39:02;;;;;;;3.15;1.30;;;12.30;80.40;;;;;;5086132;28;20032;-92
2023/01/11 11:41:43;;;;;;;2.08;1.20;;;12.40;80.50;;;;;;5088527;28;20026;-91
2023/01/11 11:44:25;;;;;;;2.33;1.23;;;12.30;80.40;;;;;;5090752;28;20089;-93
2023/01/11 11:47:05;;;;;;;2.50;1.50;;;12.40;80.50;;;;;;5078708;28;20093;-89
2023/01/11 11:49:33;;;;;;;2.75;1.45;;;12.40;80.50;;;;;;5073760;28;20038;-91
2023/01/11 11:52:01;;;;;;;3.20;1.48;;;12.40;80.50;;;;;;5082004;28;20031;-89
2023/01/11 11:54:52;;;;;;;3.15;1.30;;;12.40;80.50;;;;;;5086579;28;20031;-88
2023/01/11 11:57:33;;;;;;;2.10;1.30;;;12.40;80.60;;;;;;5091401;28;20551;-89
2023/01/11 12:00:27;;;;;;;2.47;1.52;;;12.40;80.60;;;;;;5078830;28;20028;-89
2023/01/11 12:02:58;;;;;;;2.85;1.40;;;12.40;80.60;;;;;;5056023;28;20060;-88
2023/01/11 12:05:24;;;;;;;3.42;1.80;;;12.40;80.50;;;;;;5064296;28;20069;-88
2023/01/11 12:07:51;;;;;;;3.13;1.40;;;12.40;80.50;;;;;;5083226;28;20031;-90
2023/01/11 12:10:19;;;;;;;2.85;1.52;;;12.40;80.60;;;;;;5075837;28;20048;-84
2023/01/11 12:12:53;;;;;;;3.63;1.55;;;12.50;80.60;;;;;;5078792;28;20028;-83
2023/01/11 12:15:23;;;;;;;3.00;1.42;;;12.50;80.70;;;;;;5091221;28;20027;-84
2023/01/11 12:17:49;;;;;;;3.05;1.65;;;12.50;80.60;;;;;;5096060;28;20025;-80
2023/01/11 12:20:21;;;;;;;2.13;1.20;;;12.50;80.60;;;;;;5074608;28;20024;-83
2023/01/11 12:23:06;;;;;;;3.45;1.40;;;12.50;80.70;;;;;;5079489;28;20025;-87
2023/01/11 12:25:35;;;;;;;;;;;12.50;80.60;;;;;;5101937;28;20058;-89
2023/01/11 12:28:26;;;;;;;2.67;1.20;;;12.50;80.50;;;;;;5083037;28;19923;-90
2023/01/11 12:31:21;;;;;;;2.17;1.42;;;12.50;80.40;;;;;;5063449;28;20059;-91
2023/01/11 12:34:19;;;;;;;3.60;1.35;;;12.50;80.60;;;;;;5081934;28;20030;-91
2023/01/11 12:36:58;;;;;;;4.03;1.38;;;12.50;80.60;;;;;;5086211;28;20028;-83
2023/01/11 12:39:47;;;;;;;3.83;1.52;;;12.50;80.60;;;;;;5077868;28;20081;-85
2023/01/11 12:42:42;;;;;;;2.05;1.35;;;12.50;80.70;;;;;;5037007;28;20043;-87
2023/01/11 12:45:26;;;;;;;2.97;1.50;;;12.60;80.70;;;;;;5054648;28;20020;-87
2023/01/11 12:48:13;;;;;;;4.25;1.45;;;12.60;80.60;;;;;;5075435;28;20112;-87
2023/01/11 12:50:50;;;;;;;3.03;1.52;;;12.60;80.60;;;;;;5079311;28;20464;-88
2023/01/11 12:53:28;;;;;;;3.75;1.63;;;12.60;80.60;;;;;;5067527;28;20119;-88
2023/01/11 12:56:18;;;;;;;5.70;1.70;;;12.60;80.70;;;;;;5081202;28;20050;-88
2023/01/11 12:58:54;;;;;;;3.85;1.60;;;12.60;80.70;;;;;;5086993;28;20085;-87
2023/01/11 13:01:46;;;;;;;2.08;1.42;;;12.60;80.70;;;;;;5072372;28;20099;-87
2023/01/11 13:04:42;;;;;;;2.63;1.45;;;12.60;80.70;;;;;;5082052;28;20023;-88
2023/01/11 13:07:37;;;;;;;2.65;1.50;;;12.70;80.70;;;;;;5092780;28;20030;-88
2023/01/11 13:10:22;;;;;;;3.55;1.50;;;12.70;80.70;;;;;;5082755;28;20051;-87
2023/01/11 13:13:12;;;;;;;2.78;1.35;;;12.70;80.60;;;;;;5078390;28;20092;-87
2023/01/11 13:15:53;;;;;;;2.08;1.58;;;12.70;80.60;;;;;;5086836;28;20055;-88
2023/01/11 13:18:26;;;;;;;3.05;1.25;;;12.70;80.60;;;;;;5083727;28;20024;-88
2023/01/11 13:21:09;;;;;;;3.33;1.50;;;12.70;80.50;;;;;;5078305;28;20039;-88
2023/01/11 13:23:55;;;;;;;3.00;1.50;;;12.70;80.60;;;;;;5072154;28;20024;-88
2023/01/11 13:26:30;;;;;;;3.72;1.60;;;12.80;80.60;;;;;;5059502;28;20472;-88
2023/01/11 13:29:02;;;;;;;;;;;12.70;80.60;;;;;;5077205;28;20032;-87
2023/01/11 13:31:30;;;;;;;2.38;1.50;;;12.70;80.50;;;;;;5098476;28;19908;-87
2023/01/11 13:34:06;;;;;;;4.78;1.70;;;12.80;80.40;;;;;;5064847;28;20032;-87
2023/01/11 13:36:46;;;;;;;3.13;1.70;;;12.70;80.50;;;;;;5073963;28;20047;-87
2023/01/11 13:39:45;;;;;;;5.75;1.70;;;12.80;80.60;;;;;;5084457;28;20024;-87
2023/01/11 13:42:20;;;;;;;2.30;1.38;;;12.80;80.60;;;;;;5036413;28;20032;-87
2023/01/11 13:45:00;;;;;;;2.95;1.42;;;12.80;80.60;;;;;;5093436;28;20051;-87
2023/01/11 13:47:36;;;;;;;4.20;1.67;;;12.80;80.60;;;;;;5074616;28;20047;-84